createdAt,value
2023-03-03T00:00:48.746Z,56.20
2023-03-03T00:03:19.548Z,56.00
2023-03-03T00:05:46.533Z,56.80
2023-03-03T00:08:13.442Z,55.60
2023-03-03T00:10:40.353Z,55.40
2023-03-03T00:13:17.624Z,55.60
2023-03-03T00:15:44.958Z,55.50
2023-03-03T00:18:22.631Z,54.90
2023-03-03T00:20:54.643Z,54.80
2023-03-03T00:23:36.186Z,54.90
2023-03-03T00:26:15.105Z,54.90
2023-03-03T00:28:51.280Z,54.80
2023-03-03T00:31:22.501Z,54.60
2023-03-03T00:33:55.019Z,54.70
2023-03-03T00:36:32.707Z,54.60
2023-03-03T00:39:17.868Z,54.10
2023-03-03T00:41:44.779Z,54.40
2023-03-03T00:44:44.069Z,54.10
2023-03-03T00:47:31.031Z,53.90
2023-03-03T00:50:07.273Z,54.10
2023-03-03T00:52:37.475Z,54.00
2023-03-03T00:55:05.287Z,54.20
2023-03-03T00:57:32.297Z,54.50
2023-03-03T00:59:59.761Z,55.30
2023-03-03T01:02:27.194Z,55.50
2023-03-03T01:04:57.333Z,55.70
2023-03-03T01:07:24.226Z,55.10
2023-03-03T01:09:51.154Z,54.50
2023-03-03T01:12:18.733Z,54.20
2023-03-03T01:14:46.103Z,55.30
2023-03-03T01:17:12.976Z,55.60
2023-03-03T01:19:39.922Z,56.00
2023-03-03T01:22:06.889Z,56.20
2023-03-03T01:24:33.723Z,55.60
2023-03-03T01:27:00.534Z,55.60
2023-03-03T01:29:27.372Z,55.90
2023-03-03T01:31:54.343Z,55.60
2023-03-03T01:34:22.036Z,55.00
2023-03-03T01:36:48.985Z,54.60
2023-03-03T01:39:16.063Z,54.30
2023-03-03T01:41:42.911Z,55.70
2023-03-03T01:44:15.173Z,56.30
2023-03-03T01:46:50.773Z,56.40
2023-03-03T01:49:27.268Z,56.20
2023-03-03T01:52:01.268Z,56.60
2023-03-03T01:54:37.104Z,56.90
2023-03-03T01:57:11.357Z,57.70
2023-03-03T01:59:42.939Z,58.30
2023-03-03T02:02:09.950Z,57.90
2023-03-03T02:04:36.941Z,57.10
2023-03-03T02:07:10.743Z,56.70
2023-03-03T02:10:02.013Z,57.30
2023-03-03T02:12:41.497Z,58.10
2023-03-03T02:15:24.484Z,57.60
2023-03-03T02:17:54.840Z,57.80
2023-03-03T02:20:32.530Z,58.00
2023-03-03T02:23:06.356Z,57.50
2023-03-03T02:25:58.728Z,57.90
2023-03-03T02:28:31.100Z,57.90
2023-03-03T02:31:02.702Z,57.80
2023-03-03T02:33:30.086Z,57.80
2023-03-03T02:35:57.023Z,57.10
2023-03-03T02:38:40.142Z,57.50
2023-03-03T02:41:22.267Z,58.20
2023-03-03T02:44:07.245Z,58.30
2023-03-03T02:46:43.009Z,58.50
2023-03-03T02:49:12.414Z,59.00
2023-03-03T02:51:39.976Z,59.30
2023-03-03T02:54:08.699Z,58.70
2023-03-03T02:56:36.798Z,58.10
2023-03-03T02:59:05.052Z,58.30
2023-03-03T03:01:38.445Z,58.20
2023-03-03T03:04:13.443Z,58.30
2023-03-03T03:06:44.172Z,58.10
2023-03-03T03:09:14.469Z,58.60
2023-03-03T03:11:41.825Z,58.60
2023-03-03T03:14:11.715Z,58.80
2023-03-03T03:16:40.161Z,58.90
2023-03-03T03:19:08.084Z,58.90
2023-03-03T03:21:36.452Z,58.10
2023-03-03T03:24:05.914Z,57.30
2023-03-03T03:26:34.121Z,56.40
2023-03-03T03:29:01.196Z,55.90
2023-03-03T03:31:28.416Z,55.70
2023-03-03T03:33:55.353Z,55.70
2023-03-03T03:36:23.696Z,55.60
2023-03-03T03:38:52.402Z,54.90
2023-03-03T03:41:19.515Z,54.70
2023-03-03T03:43:47.284Z,54.30
2023-03-03T03:46:15.154Z,54.50
2023-03-03T03:48:42.133Z,55.60
2023-03-03T03:51:12.642Z,56.40
2023-03-03T03:53:40.099Z,56.90
2023-03-03T03:56:07.686Z,57.30
2023-03-03T03:58:34.824Z,57.70
2023-03-03T04:01:07.210Z,58.00
2023-03-03T04:03:38.034Z,58.30
2023-03-03T04:06:09.463Z,58.20
2023-03-03T04:08:36.367Z,58.20
2023-03-03T04:11:04.083Z,58.70
2023-03-03T04:13:35.183Z,58.60
2023-03-03T04:16:03.982Z,59.00
2023-03-03T04:18:31.115Z,59.60
2023-03-03T04:20:58.659Z,59.70
2023-03-03T04:23:26.922Z,59.10
2023-03-03T04:25:53.851Z,58.50
2023-03-03T04:28:22.450Z,58.30
2023-03-03T04:30:50.516Z,58.90
2023-03-03T04:33:18.461Z,59.40
2023-03-03T04:35:46.076Z,58.80
2023-03-03T04:38:13.600Z,59.20
2023-03-03T04:40:42.274Z,58.50
2023-03-03T04:43:10.632Z,58.50
2023-03-03T04:45:37.914Z,58.50
2023-03-03T04:48:05.850Z,58.30
2023-03-03T04:50:34.980Z,58.90
2023-03-03T04:53:02.248Z,58.70
2023-03-03T04:55:29.125Z,58.40
2023-03-03T04:57:55.963Z,58.30
2023-03-03T05:00:23.307Z,58.50
2023-03-03T05:02:50.156Z,58.60
2023-03-03T05:05:17.230Z,58.50
2023-03-03T05:07:44.196Z,58.20
2023-03-03T05:10:12.039Z,58.50
2023-03-03T05:12:39.289Z,58.40
2023-03-03T05:15:07.182Z,58.40
2023-03-03T05:17:33.980Z,58.50
2023-03-03T05:20:00.758Z,58.70
2023-03-03T05:22:28.051Z,58.70
2023-03-03T05:24:54.861Z,59.20
2023-03-03T05:27:21.817Z,59.50
2023-03-03T05:29:48.812Z,59.20
2023-03-03T05:32:15.896Z,59.60
2023-03-03T05:34:43.102Z,58.90
2023-03-03T05:37:09.994Z,58.60
2023-03-03T05:39:36.910Z,58.30
2023-03-03T05:42:03.823Z,58.40
2023-03-03T05:44:30.674Z,58.80
2023-03-03T05:46:57.787Z,59.60
2023-03-03T05:49:25.357Z,59.60
2023-03-03T05:51:52.340Z,59.90
2023-03-03T05:54:19.304Z,60.00
2023-03-03T05:56:46.259Z,59.70
2023-03-03T05:59:13.464Z,59.40
2023-03-03T06:01:40.297Z,59.30
2023-03-03T06:04:10.339Z,59.20
2023-03-03T06:06:37.562Z,59.60
2023-03-03T06:09:04.833Z,59.20
2023-03-03T06:11:31.836Z,59.80
2023-03-03T06:13:59.265Z,60.00
2023-03-03T06:16:26.094Z,60.50
2023-03-03T06:18:52.993Z,60.30
2023-03-03T06:21:20.296Z,59.90
2023-03-03T06:23:47.111Z,60.30
2023-03-03T06:26:13.961Z,60.30
2023-03-03T06:28:40.960Z,60.30
2023-03-03T06:31:07.772Z,60.50
2023-03-03T06:33:34.644Z,60.80
2023-03-03T06:36:01.591Z,60.10
2023-03-03T06:38:29.072Z,60.60
2023-03-03T06:40:55.999Z,60.00
2023-03-03T06:43:23.004Z,59.70
2023-03-03T06:45:49.947Z,59.30
2023-03-03T06:48:16.863Z,58.70
2023-03-03T06:50:43.757Z,58.70
2023-03-03T06:53:16.447Z,58.50
2023-03-03T06:55:45.216Z,58.20
2023-03-03T06:58:22.833Z,58.10
2023-03-03T07:00:57.121Z,58.70
2023-03-03T07:03:33.349Z,58.80
2023-03-03T07:06:01.185Z,58.00
2023-03-03T07:08:32.114Z,58.80
2023-03-03T07:11:08.287Z,57.90
2023-03-03T07:13:40.376Z,58.90
2023-03-03T07:16:12.591Z,59.40
2023-03-03T07:18:40.941Z,59.30
2023-03-03T07:21:32.156Z,59.70
2023-03-03T07:24:01.372Z,60.10
2023-03-03T07:26:33.075Z,60.40
2023-03-03T07:29:18.271Z,60.20
2023-03-03T07:31:48.595Z,60.10
2023-03-03T07:34:38.076Z,60.30
2023-03-03T07:37:18.416Z,61.00
2023-03-03T07:39:46.910Z,61.10
2023-03-03T07:42:53.431Z,61.00
2023-03-03T07:45:36.308Z,61.00
2023-03-03T07:48:22.061Z,60.90
2023-03-03T07:50:50.038Z,60.60
2023-03-03T07:53:29.604Z,60.00
2023-03-03T07:55:56.522Z,60.70
2023-03-03T07:58:29.823Z,60.90
2023-03-03T08:01:28.271Z,60.90
2023-03-03T08:03:56.326Z,60.90
2023-03-03T08:06:38.046Z,60.70
2023-03-03T08:09:27.911Z,60.30
2023-03-03T08:12:19.620Z,60.70
2023-03-03T08:14:47.539Z,60.00
2023-03-03T08:17:20.477Z,60.40
2023-03-03T08:19:48.193Z,60.00
2023-03-03T08:22:25.242Z,59.70
2023-03-03T08:24:52.324Z,60.10
2023-03-03T08:27:19.417Z,60.20
2023-03-03T08:29:48.431Z,58.00
2023-03-03T08:32:15.648Z,57.50
2023-03-03T08:34:42.693Z,56.10
2023-03-03T08:37:09.470Z,55.90
2023-03-03T08:39:36.323Z,56.20
2023-03-03T08:42:03.310Z,55.60
2023-03-03T08:44:30.156Z,56.80
2023-03-03T08:46:56.976Z,57.10
2023-03-03T08:49:23.924Z,57.30
2023-03-03T08:51:52.648Z,57.70
2023-03-03T08:54:19.452Z,57.80
2023-03-03T08:56:46.481Z,57.80
2023-03-03T08:59:13.498Z,57.50
2023-03-03T09:01:40.487Z,57.40
2023-03-03T09:04:07.449Z,57.10
2023-03-03T09:06:34.307Z,57.50
2023-03-03T09:09:01.469Z,57.60
2023-03-03T09:11:29.657Z,57.90
2023-03-03T09:14:10.009Z,57.20
2023-03-03T09:16:51.879Z,56.80
2023-03-03T09:19:23.557Z,58.10
2023-03-03T09:21:55.344Z,57.80
2023-03-03T09:24:25.917Z,57.50
2023-03-03T09:26:55.742Z,58.10
2023-03-03T09:29:29.410Z,57.80
2023-03-03T09:32:02.402Z,57.90
2023-03-03T09:34:41.228Z,57.30
2023-03-03T09:37:40.383Z,58.80
2023-03-03T09:40:47.788Z,58.00
2023-03-03T09:43:42.492Z,57.30
2023-03-03T09:46:40.271Z,57.50
2023-03-03T09:49:16.692Z,55.50
2023-03-03T09:52:08.489Z,56.00
2023-03-03T09:54:56.968Z,55.00
2023-03-03T09:57:36.142Z,55.70
2023-03-03T10:00:34.205Z,54.60
2023-03-03T10:03:21.895Z,53.70
2023-03-03T10:05:48.746Z,52.80
2023-03-03T10:08:46.526Z,51.10
2023-03-03T10:11:18.048Z,53.90
2023-03-03T10:14:07.691Z,55.70
2023-03-03T10:16:50.625Z,52.70
2023-03-03T10:19:50.018Z,55.00
2023-03-03T10:22:29.509Z,55.80
2023-03-03T10:25:22.270Z,54.40
2023-03-03T10:28:30.300Z,53.20
2023-03-03T10:31:14.957Z,51.70
2023-03-03T10:33:49.581Z,50.50
2023-03-03T10:36:22.259Z,49.50
2023-03-03T10:39:19.111Z,49.60
2023-03-03T10:42:01.163Z,48.20
2023-03-03T10:44:46.201Z,47.50
2023-03-03T10:47:35.673Z,45.90
2023-03-03T10:50:30.279Z,45.10
2023-03-03T10:53:21.689Z,45.20
2023-03-03T10:56:11.604Z,44.30
2023-03-03T10:58:46.278Z,45.10
2023-03-03T11:01:31.639Z,44.60
2023-03-03T11:04:57.325Z,44.90
2023-03-03T11:07:39.186Z,45.60
2023-03-03T11:10:17.380Z,45.10
2023-03-03T11:13:10.823Z,45.10
2023-03-03T11:15:56.084Z,45.50
2023-03-03T11:18:44.758Z,46.40
2023-03-03T11:21:32.415Z,46.40
2023-03-03T11:24:28.252Z,47.40
2023-03-03T11:27:23.201Z,47.60
2023-03-03T11:30:18.363Z,48.30
2023-03-03T11:32:59.036Z,48.40
2023-03-03T11:35:35.912Z,49.10
2023-03-03T11:38:17.510Z,49.80
2023-03-03T11:41:09.693Z,49.90
2023-03-03T11:43:56.501Z,50.20
2023-03-03T11:46:48.591Z,50.50
2023-03-03T11:49:43.432Z,50.50
2023-03-03T11:52:53.303Z,50.40
2023-03-03T11:55:48.934Z,50.60
2023-03-03T11:58:31.603Z,51.20
2023-03-03T12:01:19.986Z,50.90
2023-03-03T12:04:15.597Z,51.00
2023-03-03T12:07:12.891Z,50.40
2023-03-03T12:10:02.771Z,50.70
2023-03-03T12:12:52.766Z,50.70
2023-03-03T12:15:46.382Z,50.80
2023-03-03T12:18:29.024Z,50.50
2023-03-03T12:21:16.019Z,50.50
2023-03-03T12:23:51.833Z,50.90
2023-03-03T12:26:53.206Z,50.90
2023-03-03T12:29:35.636Z,50.50
2023-03-03T12:32:16.030Z,50.80
2023-03-03T12:34:56.564Z,51.00
2023-03-03T12:37:43.822Z,51.40
2023-03-03T12:40:21.114Z,51.40
2023-03-03T12:43:11.130Z,51.80
2023-03-03T12:45:48.252Z,51.60
2023-03-03T12:48:45.198Z,52.20
2023-03-03T12:51:30.007Z,52.30
2023-03-03T12:54:10.338Z,52.70
2023-03-03T12:56:46.302Z,52.90
2023-03-03T12:59:34.774Z,53.00
2023-03-03T13:02:30.867Z,53.60
2023-03-03T13:05:06.417Z,53.40
2023-03-03T13:07:46.262Z,53.60
2023-03-03T13:10:17.150Z,53.70
2023-03-03T13:13:07.006Z,53.60
2023-03-03T13:15:38.174Z,53.80
2023-03-03T13:18:17.323Z,53.70
2023-03-03T13:21:05.933Z,53.90
2023-03-03T13:23:46.525Z,54.10
2023-03-03T13:26:26.521Z,54.10
2023-03-03T13:29:17.728Z,54.30
2023-03-03T13:31:52.002Z,54.40
2023-03-03T13:34:36.376Z,54.40
2023-03-03T13:37:17.751Z,54.60
2023-03-03T13:40:00.310Z,54.60
2023-03-03T13:42:38.387Z,54.50
2023-03-03T13:45:20.960Z,54.40
2023-03-03T13:48:01.854Z,54.40
2023-03-03T13:50:45.227Z,54.60
2023-03-03T13:53:47.710Z,54.60
2023-03-03T13:56:26.501Z,54.20
2023-03-03T13:59:10.287Z,54.40
2023-03-03T14:02:21.051Z,54.70
2023-03-03T14:05:01.730Z,54.40
2023-03-03T14:07:57.464Z,54.40
2023-03-03T14:10:32.025Z,54.90
2023-03-03T14:13:01.940Z,54.50
2023-03-03T14:15:38.734Z,54.40
2023-03-03T14:18:34.499Z,54.20
2023-03-03T14:21:15.119Z,54.50
2023-03-03T14:23:55.709Z,54.70
2023-03-03T14:26:22.960Z,55.00
2023-03-03T14:28:52.425Z,54.80
2023-03-03T14:31:23.642Z,54.80
2023-03-03T14:34:12.264Z,55.20
2023-03-03T14:36:41.746Z,55.30
2023-03-03T14:39:33.502Z,55.30
2023-03-03T14:42:14.823Z,55.70
2023-03-03T14:44:55.718Z,55.50
2023-03-03T14:47:25.007Z,55.60
2023-03-03T14:50:00.773Z,55.80
2023-03-03T14:52:30.159Z,55.80
2023-03-03T14:55:00.380Z,56.10
2023-03-03T14:57:46.263Z,56.10
2023-03-03T15:00:13.584Z,56.10
2023-03-03T15:03:04.728Z,56.20
2023-03-03T15:05:32.993Z,56.30
2023-03-03T15:08:05.835Z,56.30
2023-03-03T15:10:38.201Z,56.40
2023-03-03T15:13:20.752Z,56.30
2023-03-03T15:15:53.222Z,56.70
2023-03-03T15:18:20.788Z,56.40
2023-03-03T15:21:10.406Z,56.50
2023-03-03T15:23:40.306Z,56.70
2023-03-03T15:26:10.150Z,56.80
2023-03-03T15:28:59.742Z,56.70
2023-03-03T15:31:41.379Z,56.20
2023-03-03T15:34:44.379Z,56.70
2023-03-03T15:37:14.174Z,56.70
2023-03-03T15:40:32.432Z,56.60
2023-03-03T15:43:05.697Z,56.80
2023-03-03T15:45:49.997Z,56.90
2023-03-03T15:48:39.880Z,57.00
2023-03-03T15:51:25.682Z,56.90
2023-03-03T15:54:10.776Z,57.40
2023-03-03T15:56:58.439Z,57.10
2023-03-03T15:59:28.430Z,57.10
2023-03-03T16:02:11.220Z,57.00
2023-03-03T16:04:46.916Z,57.10
2023-03-03T16:07:52.294Z,57.20
2023-03-03T16:10:25.131Z,57.20
2023-03-03T16:12:59.677Z,57.30
2023-03-03T16:15:58.683Z,57.20
2023-03-03T16:18:45.072Z,57.30
2023-03-03T16:21:21.561Z,57.10
2023-03-03T16:24:13.265Z,57.30
2023-03-03T16:27:06.129Z,57.50
2023-03-03T16:29:43.370Z,57.50
2023-03-03T16:32:24.470Z,57.70
2023-03-03T16:35:17.909Z,57.50
2023-03-03T16:38:06.518Z,57.70
2023-03-03T16:40:37.110Z,57.70
2023-03-03T16:43:29.980Z,57.60
2023-03-03T16:46:23.661Z,57.80
2023-03-03T16:49:09.935Z,57.70
2023-03-03T16:51:44.742Z,58.00
2023-03-03T16:54:20.729Z,58.20
2023-03-03T16:57:00.052Z,57.80
2023-03-03T16:59:37.973Z,57.80
2023-03-03T17:02:10.564Z,57.60
2023-03-03T17:04:49.032Z,57.50
2023-03-03T17:07:23.232Z,57.50
2023-03-03T17:10:05.246Z,57.60
2023-03-03T17:12:46.899Z,57.60
2023-03-03T17:15:35.499Z,57.40
2023-03-03T17:18:24.609Z,57.40
2023-03-03T17:20:58.124Z,57.00
2023-03-03T17:23:40.924Z,56.50
2023-03-03T17:26:28.091Z,56.40
2023-03-03T17:29:10.410Z,56.60
2023-03-03T17:31:59.146Z,57.00
2023-03-03T17:34:35.093Z,57.20
2023-03-03T17:37:11.125Z,57.20
2023-03-03T17:40:01.205Z,57.40
2023-03-03T17:42:47.517Z,57.20
2023-03-03T17:45:16.640Z,57.30
2023-03-03T17:47:51.756Z,57.20
2023-03-03T17:50:30.763Z,57.30
2023-03-03T17:53:15.583Z,57.30
2023-03-03T17:55:48.397Z,57.30
2023-03-03T17:58:34.181Z,57.10
2023-03-03T18:01:21.050Z,57.20
2023-03-03T18:03:59.136Z,57.10
2023-03-03T18:06:48.287Z,57.20
2023-03-03T18:09:46.066Z,56.90
2023-03-03T18:12:44.497Z,56.40
2023-03-03T18:15:25.340Z,56.40
2023-03-03T18:17:52.270Z,56.40
2023-03-03T18:20:54.310Z,56.30
2023-03-03T18:23:42.653Z,56.10
2023-03-03T18:26:36.038Z,55.70
2023-03-03T18:29:26.216Z,55.50
2023-03-03T18:31:53.027Z,55.00
2023-03-03T18:34:39.246Z,55.10
2023-03-03T18:37:31.424Z,54.80
2023-03-03T18:40:04.298Z,55.40
2023-03-03T18:42:46.473Z,54.30
2023-03-03T18:45:23.036Z,54.90
2023-03-03T18:48:14.481Z,54.40
2023-03-03T18:50:47.354Z,54.50
2023-03-03T18:53:22.735Z,54.40
2023-03-03T18:55:56.535Z,54.20
2023-03-03T18:58:27.367Z,54.20
2023-03-03T19:01:11.706Z,54.70
2023-03-03T19:03:47.100Z,55.10
2023-03-03T19:06:57.068Z,55.40
2023-03-03T19:09:56.725Z,54.90
2023-03-03T19:12:51.884Z,55.50
2023-03-03T19:15:35.466Z,55.00
2023-03-03T19:18:02.472Z,55.50
2023-03-03T19:20:45.736Z,55.70
2023-03-03T19:23:15.971Z,55.70
2023-03-03T19:25:43.171Z,55.50
2023-03-03T19:28:38.730Z,55.20
2023-03-03T19:31:46.358Z,55.10
2023-03-03T19:34:22.441Z,55.20
2023-03-03T19:37:16.168Z,55.00
2023-03-03T19:40:01.129Z,54.50
2023-03-03T19:42:40.036Z,54.40
2023-03-03T19:45:15.770Z,53.90
2023-03-03T19:47:52.195Z,54.20
2023-03-03T19:50:46.032Z,54.10
2023-03-03T19:53:28.081Z,54.40
2023-03-03T19:56:07.107Z,54.20
2023-03-03T19:58:38.560Z,54.20
2023-03-03T20:01:33.064Z,54.30
2023-03-03T20:04:30.859Z,54.20
2023-03-03T20:07:34.978Z,54.60
2023-03-03T20:10:23.732Z,54.50
2023-03-03T20:13:12.290Z,54.20
2023-03-03T20:15:53.913Z,54.20
2023-03-03T20:18:53.348Z,54.10
2023-03-03T20:21:59.281Z,54.40
2023-03-03T20:24:41.615Z,54.00
2023-03-03T20:27:29.768Z,54.20
2023-03-03T20:30:06.103Z,54.20
2023-03-03T20:32:50.122Z,54.30
2023-03-03T20:35:31.792Z,54.90
2023-03-03T20:38:26.976Z,54.80
2023-03-03T20:41:02.303Z,54.80
2023-03-03T20:43:41.540Z,54.90
2023-03-03T20:46:27.368Z,55.10
2023-03-03T20:49:33.178Z,55.00
2023-03-03T20:52:22.959Z,54.90
2023-03-03T20:55:02.320Z,54.60
2023-03-03T20:57:41.565Z,54.70
2023-03-03T21:00:25.003Z,54.20
2023-03-03T21:03:00.158Z,54.40
2023-03-03T21:05:27.203Z,54.70
2023-03-03T21:07:54.080Z,54.70
2023-03-03T21:10:27.095Z,54.50
2023-03-03T21:12:59.317Z,54.80
2023-03-03T21:15:35.618Z,55.00
2023-03-03T21:18:21.183Z,55.30
2023-03-03T21:20:48.082Z,55.60
2023-03-03T21:23:16.658Z,55.40
2023-03-03T21:25:56.655Z,54.80
2023-03-03T21:28:28.983Z,55.50
2023-03-03T21:31:17.494Z,55.10
2023-03-03T21:33:47.997Z,55.00
2023-03-03T21:36:45.089Z,55.10
2023-03-03T21:39:31.670Z,55.00
2023-03-03T21:42:09.090Z,54.80
2023-03-03T21:45:09.668Z,54.90
2023-03-03T21:47:36.424Z,55.10
2023-03-03T21:50:04.036Z,54.20
2023-03-03T21:52:30.992Z,53.70
2023-03-03T21:54:57.773Z,53.90
2023-03-03T21:57:25.211Z,53.90
2023-03-03T21:59:53.424Z,54.40
2023-03-03T22:02:20.849Z,54.60
2023-03-03T22:04:47.791Z,54.20
2023-03-03T22:07:14.827Z,54.40
2023-03-03T22:09:41.645Z,54.70
2023-03-03T22:12:08.618Z,54.80
2023-03-03T22:14:35.420Z,54.80
2023-03-03T22:17:02.413Z,55.60
2023-03-03T22:19:29.360Z,55.50
2023-03-03T22:21:56.135Z,55.70
2023-03-03T22:24:23.007Z,56.10
2023-03-03T22:26:49.796Z,55.80
2023-03-03T22:29:17.168Z,56.40
2023-03-03T22:31:43.949Z,56.40
2023-03-03T22:34:11.120Z,57.80
2023-03-03T22:36:38.024Z,57.30
2023-03-03T22:39:04.795Z,57.80
2023-03-03T22:41:31.715Z,57.80
2023-03-03T22:43:58.650Z,58.00
2023-03-03T22:46:26.272Z,57.60
2023-03-03T22:48:53.279Z,57.40
2023-03-03T22:51:22.207Z,57.20
2023-03-03T22:53:49.115Z,57.10
2023-03-03T22:56:15.976Z,55.30
2023-03-03T22:58:42.775Z,56.70
2023-03-03T23:01:09.543Z,56.10
2023-03-03T23:03:37.296Z,55.20
2023-03-03T23:06:04.500Z,54.90
2023-03-03T23:08:31.498Z,55.50
2023-03-03T23:10:58.396Z,54.80
2023-03-03T23:13:27.099Z,55.00
2023-03-03T23:15:53.965Z,56.00
2023-03-03T23:18:20.929Z,56.20
2023-03-03T23:20:47.796Z,55.80
2023-03-03T23:23:14.656Z,56.40
2023-03-03T23:25:41.545Z,57.10
2023-03-03T23:28:08.433Z,57.30
2023-03-03T23:30:35.386Z,57.90
2023-03-03T23:33:02.288Z,58.10
2023-03-03T23:35:29.109Z,58.10
2023-03-03T23:37:56.056Z,58.80
2023-03-03T23:40:23.761Z,58.60
2023-03-03T23:42:50.608Z,58.40
2023-03-03T23:45:17.720Z,57.90
2023-03-03T23:47:44.586Z,58.00
2023-03-03T23:50:12.755Z,58.20
2023-03-03T23:52:39.690Z,58.60
2023-03-03T23:55:07.437Z,58.90
2023-03-03T23:57:34.225Z,57.60
